createdAt,value
2022-12-28T00:04:24.282Z,4.91
2022-12-28T00:09:55.891Z,5.06
2022-12-28T00:15:27.649Z,5.2
2022-12-28T00:20:59.488Z,5.19
2022-12-28T00:26:31.393Z,5.2
2022-12-28T00:32:02.850Z,5.13
2022-12-28T00:37:34.681Z,5.2
2022-12-28T00:43:12.607Z,5.35
2022-12-28T00:48:44.675Z,5.4
2022-12-28T00:54:16.227Z,5.37
2022-12-28T00:59:47.937Z,5.5
2022-12-28T01:05:19.636Z,5.48
2022-12-28T01:10:51.403Z,5.69
2022-12-28T01:16:23.122Z,5.4
2022-12-28T01:21:55.099Z,5.33
2022-12-28T01:27:26.615Z,5.38
2022-12-28T01:32:58.081Z,5.48
2022-12-28T01:38:30.005Z,5.46
2022-12-28T01:44:06.195Z,5.44
2022-12-28T01:49:37.839Z,5.69
2022-12-28T01:55:09.741Z,5.55
2022-12-28T02:00:41.623Z,5.49
2022-12-28T02:06:13.053Z,5.55
2022-12-28T02:11:44.623Z,5.64
2022-12-28T02:17:16.273Z,5.7
2022-12-28T02:22:48.029Z,5.76
2022-12-28T02:28:19.795Z,5.99
2022-12-28T02:33:51.456Z,6.0
2022-12-28T02:39:23.264Z,6.32
2022-12-28T02:45:01.417Z,6.2
2022-12-28T02:50:33.049Z,6.25
2022-12-28T02:56:04.848Z,6.27
2022-12-28T03:01:36.629Z,6.4
2022-12-28T03:07:08.322Z,6.39
2022-12-28T03:12:39.847Z,6.39
2022-12-28T03:18:11.708Z,6.54
2022-12-28T03:23:43.307Z,6.52
2022-12-28T03:29:15.188Z,6.48
2022-12-28T03:34:46.740Z,6.45
2022-12-28T03:40:18.463Z,6.48
2022-12-28T03:45:54.854Z,6.49
2022-12-28T03:51:26.278Z,6.71
2022-12-28T03:56:58.023Z,6.75
2022-12-28T04:02:29.845Z,6.56
2022-12-28T04:08:01.620Z,6.5
2022-12-28T04:13:33.175Z,6.39
2022-12-28T04:19:04.956Z,6.39
2022-12-28T04:24:36.821Z,6.36
2022-12-28T04:30:08.379Z,6.16
2022-12-28T04:35:40.290Z,6.21
2022-12-28T04:41:11.991Z,6.26
2022-12-28T04:46:48.139Z,6.29
2022-12-28T04:52:19.910Z,6.38
2022-12-28T04:57:51.367Z,6.37
2022-12-28T05:03:23.255Z,6.41
2022-12-28T05:08:54.798Z,6.44
2022-12-28T05:14:31.293Z,6.61
2022-12-28T05:19:58.384Z,6.61
2022-12-28T05:25:29.957Z,6.59
2022-12-28T05:31:01.751Z,6.71
2022-12-28T05:36:33.626Z,6.83
2022-12-28T05:42:05.142Z,6.93
2022-12-28T05:47:41.214Z,6.85
2022-12-28T05:53:13.121Z,6.94
2022-12-28T05:58:44.811Z,7.01
2022-12-28T06:04:16.466Z,6.99
2022-12-28T06:09:48.126Z,6.88
2022-12-28T06:15:19.851Z,6.98
2022-12-28T06:20:56.848Z,7.07
2022-12-28T06:26:23.638Z,7.04
2022-12-28T06:31:55.384Z,7.03
2022-12-28T06:37:27.270Z,7.11
2022-12-28T06:42:58.429Z,7.11
2022-12-28T06:48:36.634Z,7.14
2022-12-28T06:54:08.843Z,7.22
2022-12-28T06:59:40.258Z,7.01
2022-12-28T07:05:11.781Z,7.06
2022-12-28T07:10:43.508Z,7.11
2022-12-28T07:16:15.304Z,7.13
2022-12-28T07:21:47.023Z,7.1
2022-12-28T07:27:18.821Z,7.16
2022-12-28T07:32:50.553Z,7.1
2022-12-28T07:38:22.089Z,7.17
2022-12-28T07:43:53.834Z,7.15
2022-12-28T07:49:29.904Z,7.21
2022-12-28T07:55:01.623Z,7.15
2022-12-28T08:00:33.369Z,7.1
2022-12-28T08:06:05.067Z,7.2
2022-12-28T08:11:36.726Z,7.09
2022-12-28T08:17:08.455Z,7.42
2022-12-28T08:22:40.468Z,7.43
2022-12-28T08:28:11.969Z,7.41
2022-12-28T08:33:43.635Z,7.6
2022-12-28T08:39:15.831Z,7.76
2022-12-28T08:44:47.321Z,7.78
2022-12-28T08:50:28.020Z,7.95
2022-12-28T08:55:55.414Z,7.95
2022-12-28T09:01:27.420Z,8.0
2022-12-28T09:06:58.936Z,8.01
2022-12-28T09:12:30.608Z,8.12
2022-12-28T09:18:02.476Z,8.29
2022-12-28T09:23:34.399Z,8.39
2022-12-28T09:29:05.988Z,8.42
2022-12-28T09:34:38.263Z,8.48
2022-12-28T09:40:09.494Z,8.61
2022-12-28T09:45:41.623Z,8.73
2022-12-28T09:51:17.475Z,8.88
2022-12-28T09:56:49.189Z,9.14
2022-12-28T10:02:20.658Z,9.15
2022-12-28T10:07:52.486Z,9.12
2022-12-28T10:13:53.928Z,9.31
2022-12-28T10:18:56.082Z,9.14
2022-12-28T10:24:32.013Z,9.22
2022-12-28T10:29:59.158Z,9.26
2022-12-28T10:35:30.912Z,9.31
2022-12-28T10:41:02.649Z,9.21
2022-12-28T10:46:34.651Z,9.34
2022-12-28T10:52:12.709Z,9.44
2022-12-28T10:58:03.177Z,9.55
2022-12-28T11:03:15.901Z,9.62
2022-12-28T11:08:47.651Z,9.78
2022-12-28T11:14:19.340Z,9.74
2022-12-28T11:19:51.302Z,9.85
2022-12-28T11:25:22.991Z,9.87
2022-12-28T11:30:54.572Z,9.98
2022-12-28T11:36:26.322Z,10.06
2022-12-28T11:47:29.969Z,10.03
2022-12-28T11:53:12.187Z,10.04
2022-12-28T11:58:39.673Z,10.04
2022-12-28T12:04:11.672Z,9.97
2022-12-28T12:09:43.248Z,10.05
2022-12-28T12:15:14.987Z,10.33
2022-12-28T12:20:46.668Z,10.33
2022-12-28T12:26:18.278Z,10.22
2022-12-28T12:31:49.941Z,10.31
2022-12-28T12:37:21.936Z,10.31
2022-12-28T12:42:53.609Z,10.41
2022-12-28T12:48:25.116Z,10.45
2022-12-28T12:54:03.220Z,10.47
2022-12-28T12:59:35.089Z,10.21
2022-12-28T13:05:06.651Z,10.24
2022-12-28T13:10:38.608Z,10.23
2022-12-28T13:16:10.274Z,10.33
2022-12-28T13:21:41.841Z,10.34
2022-12-28T13:27:13.838Z,10.27
2022-12-28T13:32:45.480Z,10.31
2022-12-28T13:38:16.952Z,10.19
2022-12-28T13:43:48.670Z,10.39
2022-12-28T13:49:20.664Z,10.26
2022-12-28T13:54:56.846Z,10.27
2022-12-28T14:00:28.435Z,10.31
2022-12-28T14:05:59.968Z,10.33
2022-12-28T14:11:31.914Z,10.35
2022-12-28T14:17:03.451Z,10.41
2022-12-28T14:22:36.066Z,10.28
2022-12-28T14:28:07.163Z,10.18
2022-12-28T14:33:38.655Z,10.28
2022-12-28T14:39:10.277Z,10.15
2022-12-28T14:44:42.064Z,10.26
2022-12-28T14:50:14.007Z,10.05
2022-12-28T14:55:49.851Z,10.2
2022-12-28T15:01:21.837Z,10.19
2022-12-28T15:06:53.651Z,10.11
2022-12-28T15:12:25.208Z,10.17
2022-12-28T15:17:56.775Z,10.11
2022-12-28T15:23:28.745Z,10.06
2022-12-28T15:29:00.245Z,10.17
2022-12-28T15:34:32.115Z,10.13
2022-12-28T15:40:03.718Z,10.04
2022-12-28T15:45:36.099Z,10.14
2022-12-28T15:51:07.125Z,10.1
2022-12-28T15:56:45.229Z,9.99
2022-12-28T16:02:17.038Z,9.86
2022-12-28T16:07:48.717Z,9.94
2022-12-28T16:13:20.423Z,9.95
2022-12-28T16:18:52.999Z,9.77
2022-12-28T16:24:23.891Z,9.81
2022-12-28T16:29:58.824Z,9.91
2022-12-28T16:35:27.365Z,9.9
2022-12-28T16:40:59.197Z,9.79
2022-12-28T16:46:30.796Z,10.0
2022-12-28T16:52:02.568Z,9.86
2022-12-28T16:57:40.862Z,9.73
2022-12-28T17:03:12.646Z,9.73
2022-12-28T17:08:50.979Z,9.95
2022-12-28T17:14:36.759Z,9.95
2022-12-28T17:19:54.723Z,9.93
2022-12-28T17:25:26.337Z,9.87
2022-12-28T17:30:58.049Z,10.03
2022-12-28T17:36:29.577Z,10.0
2022-12-28T17:42:01.261Z,9.86
2022-12-28T17:47:33.290Z,9.91
2022-12-28T17:53:04.747Z,9.81
2022-12-28T17:58:40.901Z,9.85
2022-12-28T18:04:12.565Z,9.8
2022-12-28T18:09:44.386Z,9.62
2022-12-28T18:15:15.972Z,9.79
2022-12-28T18:20:47.687Z,9.84
2022-12-28T18:26:19.652Z,9.93
2022-12-28T18:31:51.165Z,9.89
2022-12-28T18:37:23.073Z,9.8
2022-12-28T18:42:54.768Z,9.88
2022-12-28T18:48:26.322Z,9.8
2022-12-28T18:53:58.073Z,9.82
2022-12-28T18:59:36.126Z,9.76
2022-12-28T19:05:07.912Z,9.9
2022-12-28T19:10:39.650Z,9.83
2022-12-28T19:16:11.348Z,9.95
2022-12-28T19:21:43.077Z,9.91
2022-12-28T19:27:14.806Z,9.82
2022-12-28T19:32:46.446Z,9.55
2022-12-28T19:38:18.239Z,9.46
2022-12-28T19:43:50.146Z,9.52
2022-12-28T19:49:21.838Z,9.64
2022-12-28T19:54:53.408Z,9.62
2022-12-28T20:00:32.120Z,9.77
2022-12-28T20:06:03.650Z,9.68
2022-12-28T20:11:34.896Z,9.68
2022-12-28T20:17:06.829Z,9.73
2022-12-28T20:22:39.038Z,9.57
2022-12-28T20:28:10.233Z,9.62
2022-12-28T20:33:42.080Z,9.59
2022-12-28T20:39:13.665Z,9.63
2022-12-28T20:44:45.210Z,9.63
2022-12-28T20:50:17.139Z,9.62
2022-12-28T20:55:48.652Z,9.68
2022-12-28T21:01:25.184Z,9.56
2022-12-28T21:06:57.337Z,9.7
2022-12-28T21:12:28.508Z,9.6
2022-12-28T21:18:00.327Z,9.64
2022-12-28T21:23:31.722Z,9.64
2022-12-28T21:29:03.457Z,9.71
2022-12-28T21:34:35.236Z,9.71
2022-12-28T21:40:07.568Z,9.81
2022-12-28T21:45:38.561Z,9.78
2022-12-28T21:51:11.249Z,9.81
2022-12-28T21:56:42.332Z,9.85
2022-12-28T22:02:18.501Z,9.97
2022-12-28T22:07:50.073Z,9.92
2022-12-28T22:13:21.583Z,10.07
2022-12-28T22:19:01.979Z,10.05
2022-12-28T22:24:25.014Z,10.29
2022-12-28T22:29:57.115Z,10.37
2022-12-28T22:35:28.709Z,10.41
2022-12-28T22:41:00.336Z,10.64
2022-12-28T22:46:31.995Z,10.71
2022-12-28T22:52:03.774Z,10.72
2022-12-28T22:57:35.446Z,10.83
2022-12-28T23:03:11.687Z,10.89
2022-12-28T23:08:43.173Z,10.99
2022-12-28T23:14:15.070Z,10.98
2022-12-28T23:19:46.624Z,11.06
2022-12-28T23:25:18.560Z,10.98
2022-12-28T23:30:50.147Z,11.21
2022-12-28T23:36:21.776Z,11.26
2022-12-28T23:41:54.107Z,11.32
2022-12-28T23:47:25.347Z,11.33
2022-12-28T23:52:56.924Z,11.4
2022-12-28T23:58:28.990Z,11.5
